createdAt,value
2023-01-01T00:02:03.431Z,49.93
2023-01-01T00:04:30.173Z,49.84
2023-01-01T00:06:56.706Z,49.42
2023-01-01T00:09:41.799Z,50.85
2023-01-01T00:12:08.407Z,49.92
2023-01-01T00:14:34.899Z,50.46
2023-01-01T00:17:02.035Z,50.12
2023-01-01T00:19:28.593Z,50.60
2023-01-01T00:21:55.351Z,50.15
2023-01-01T00:24:22.621Z,49.91
2023-01-01T00:26:49.433Z,49.62
2023-01-01T00:29:16.321Z,48.76
2023-01-01T00:31:42.857Z,49.18
2023-01-01T00:34:10.147Z,49.68
2023-01-01T00:36:36.658Z,50.06
2023-01-01T00:39:03.745Z,49.37
2023-01-01T00:41:30.544Z,49.20
2023-01-01T00:43:57.032Z,49.59
2023-01-01T00:46:24.387Z,49.47
2023-01-01T00:48:50.943Z,49.01
2023-01-01T00:51:17.514Z,49.62
2023-01-01T00:53:44.017Z,50.36
2023-01-01T00:56:10.560Z,49.03
2023-01-01T00:58:37.081Z,49.05
2023-01-01T01:01:03.964Z,49.43
2023-01-01T01:03:30.808Z,49.55
2023-01-01T01:06:09.738Z,49.24
2023-01-01T01:08:38.651Z,48.79
2023-01-01T01:11:19.775Z,49.41
2023-01-01T01:13:49.230Z,48.91
2023-01-01T01:16:21.697Z,48.57
2023-01-01T01:18:51.835Z,48.06
2023-01-01T01:21:20.710Z,49.22
2023-01-01T01:23:48.535Z,49.57
2023-01-01T01:26:22.387Z,48.79
2023-01-01T01:28:50.315Z,49.30
2023-01-01T01:31:18.850Z,49.75
2023-01-01T01:33:46.601Z,49.71
2023-01-01T01:36:14.488Z,48.67
2023-01-01T01:38:41.895Z,49.60
2023-01-01T01:41:08.686Z,50.07
2023-01-01T01:43:35.124Z,49.81
2023-01-01T01:46:10.669Z,49.76
2023-01-01T01:48:40.959Z,49.38
2023-01-01T01:51:07.772Z,48.29
2023-01-01T01:53:39.829Z,48.73
2023-01-01T01:56:12.697Z,47.56
2023-01-01T01:58:39.396Z,48.52
2023-01-01T02:01:06.409Z,48.58
2023-01-01T02:03:43.467Z,48.68
2023-01-01T02:06:10.945Z,48.72
2023-01-01T02:08:37.740Z,48.44
2023-01-01T02:11:04.385Z,49.55
2023-01-01T02:13:31.158Z,49.71
2023-01-01T02:16:06.457Z,48.56
2023-01-01T02:18:42.929Z,49.00
2023-01-01T02:21:20.264Z,48.18
2023-01-01T02:24:17.122Z,49.04
2023-01-01T02:26:51.584Z,49.47
2023-01-01T02:29:38.023Z,48.93
2023-01-01T02:32:17.850Z,48.76
2023-01-01T02:34:58.842Z,49.19
2023-01-01T02:37:28.359Z,48.42
2023-01-01T02:39:58.560Z,48.53
2023-01-01T02:42:28.674Z,49.57
2023-01-01T02:44:58.108Z,49.18
2023-01-01T02:47:24.745Z,50.21
2023-01-01T02:50:33.123Z,49.70
2023-01-01T02:53:11.348Z,49.25
2023-01-01T02:55:56.519Z,49.59
2023-01-01T02:59:03.808Z,49.41
2023-01-01T03:01:44.506Z,49.56
2023-01-01T03:04:26.265Z,49.57
2023-01-01T03:06:59.104Z,49.44
2023-01-01T03:09:47.630Z,48.72
2023-01-01T03:12:25.200Z,48.62
2023-01-01T03:15:05.910Z,49.80
2023-01-01T03:17:45.924Z,49.14
2023-01-01T03:20:19.269Z,48.44
2023-01-01T03:22:49.582Z,47.63
2023-01-01T03:25:25.719Z,48.06
2023-01-01T03:27:59.541Z,47.68
2023-01-01T03:30:26.769Z,47.85
2023-01-01T03:33:03.313Z,47.66
2023-01-01T03:35:50.306Z,47.80
2023-01-01T03:38:30.689Z,48.05
2023-01-01T03:41:04.614Z,48.26
2023-01-01T03:43:49.527Z,48.15
2023-01-01T03:46:20.492Z,47.87
2023-01-01T03:49:02.601Z,48.55
2023-01-01T03:51:53.648Z,47.60
2023-01-01T03:54:28.634Z,48.45
2023-01-01T03:57:12.587Z,47.81
2023-01-01T03:59:57.809Z,47.83
2023-01-01T04:02:31.834Z,47.48
2023-01-01T04:05:01.294Z,47.95
2023-01-01T04:07:31.246Z,47.76
2023-01-01T04:10:01.036Z,47.38
2023-01-01T04:12:29.634Z,47.59
2023-01-01T04:14:56.557Z,48.10
2023-01-01T04:17:23.134Z,47.31
2023-01-01T04:19:54.819Z,47.20
2023-01-01T04:22:23.885Z,47.06
2023-01-01T04:24:50.558Z,46.40
2023-01-01T04:27:17.150Z,46.14
2023-01-01T04:29:44.034Z,47.23
2023-01-01T04:32:10.554Z,47.04
2023-01-01T04:34:37.095Z,47.10
2023-01-01T04:37:08.229Z,47.74
2023-01-01T04:39:37.852Z,48.14
2023-01-01T04:42:04.375Z,47.52
2023-01-01T04:44:31.277Z,47.73
2023-01-01T04:47:00.206Z,47.92
2023-01-01T04:49:27.576Z,48.06
2023-01-01T04:51:54.865Z,47.60
2023-01-01T04:54:21.393Z,48.45
2023-01-01T04:56:48.040Z,47.99
2023-01-01T04:59:14.541Z,47.10
2023-01-01T05:01:41.359Z,47.98
2023-01-01T05:04:07.998Z,47.43
2023-01-01T05:06:34.522Z,47.48
2023-01-01T05:09:03.890Z,47.03
2023-01-01T05:11:31.168Z,47.49
2023-01-01T05:14:01.348Z,47.14
2023-01-01T05:16:33.196Z,47.06
2023-01-01T05:18:59.846Z,47.91
2023-01-01T05:21:32.203Z,46.96
2023-01-01T05:24:01.771Z,46.87
2023-01-01T05:26:32.044Z,46.44
2023-01-01T05:29:00.288Z,46.49
2023-01-01T05:31:30.230Z,46.40
2023-01-01T05:36:38.848Z,46.97
2023-01-01T05:39:08.377Z,47.16
2023-01-01T05:41:36.494Z,47.40
2023-01-01T05:44:06.610Z,47.66
2023-01-01T05:46:33.654Z,47.93
2023-01-01T05:49:00.957Z,47.17
2023-01-01T05:51:29.753Z,47.50
2023-01-01T05:53:57.403Z,47.52
2023-01-01T05:56:24.660Z,47.72
2023-01-01T05:58:51.917Z,47.29
2023-01-01T06:01:27.335Z,46.93
2023-01-01T06:03:56.295Z,46.29
2023-01-01T06:06:26.879Z,46.50
2023-01-01T06:08:59.008Z,46.57
2023-01-01T06:11:26.656Z,47.59
2023-01-01T06:13:58.614Z,48.00
2023-01-01T06:16:26.957Z,47.76
2023-01-01T06:18:53.597Z,47.70
2023-01-01T06:21:23.238Z,47.56
2023-01-01T06:23:49.855Z,48.02
2023-01-01T06:26:19.531Z,48.24
2023-01-01T06:28:47.173Z,47.80
2023-01-01T06:31:16.769Z,48.50
2023-01-01T06:33:43.751Z,47.69
2023-01-01T06:36:13.002Z,47.93
2023-01-01T06:38:45.611Z,48.42
2023-01-01T06:41:20.044Z,47.83
2023-01-01T06:43:46.704Z,48.44
2023-01-01T06:46:19.537Z,47.15
2023-01-01T06:48:53.155Z,47.73
2023-01-01T06:51:22.292Z,48.04
2023-01-01T06:53:49.993Z,47.79
2023-01-01T06:56:17.952Z,47.21
2023-01-01T06:58:45.159Z,47.95
2023-01-01T07:01:23.788Z,48.86
2023-01-01T07:03:55.828Z,48.36
2023-01-01T07:06:23.949Z,47.93
2023-01-01T07:08:50.737Z,47.95
2023-01-01T07:11:17.542Z,48.31
2023-01-01T07:13:44.547Z,48.87
2023-01-01T07:16:13.285Z,49.41
2023-01-01T07:18:41.112Z,48.77
2023-01-01T07:21:28.232Z,48.07
2023-01-01T07:23:58.287Z,48.76
2023-01-01T07:26:25.954Z,48.38
2023-01-01T07:28:53.407Z,48.38
2023-01-01T07:31:20.081Z,48.87
2023-01-01T07:33:46.738Z,49.07
2023-01-01T07:36:13.445Z,49.18
2023-01-01T07:38:40.111Z,48.97
2023-01-01T07:41:07.325Z,49.71
2023-01-01T07:43:33.839Z,49.67
2023-01-01T07:46:00.566Z,49.40
2023-01-01T07:48:27.504Z,49.68
2023-01-01T07:50:54.410Z,48.83
2023-01-01T07:53:20.986Z,49.53
2023-01-01T07:55:47.978Z,49.42
2023-01-01T07:58:15.025Z,49.48
2023-01-01T08:00:45.893Z,49.89
2023-01-01T08:03:12.460Z,49.59
2023-01-01T08:05:39.398Z,50.08
2023-01-01T08:08:06.431Z,50.93
2023-01-01T08:10:33.042Z,51.22
2023-01-01T08:13:04.443Z,50.98
2023-01-01T08:15:31.506Z,50.87
2023-01-01T08:17:59.427Z,51.15
2023-01-01T08:20:27.826Z,50.66
2023-01-01T08:22:54.720Z,50.59
2023-01-01T08:25:22.098Z,49.48
2023-01-01T08:27:48.756Z,51.12
2023-01-01T08:30:16.180Z,49.90
2023-01-01T08:32:42.704Z,49.82
2023-01-01T08:35:09.664Z,50.69
2023-01-01T08:37:36.192Z,51.66
2023-01-01T08:40:03.505Z,41.65
2023-01-01T08:42:30.084Z,36.86
2023-01-01T08:44:57.201Z,48.37
2023-01-01T08:47:26.249Z,50.11
2023-01-01T08:49:53.090Z,49.91
2023-01-01T08:52:21.044Z,50.80
2023-01-01T08:54:48.372Z,48.92
2023-01-01T08:57:14.944Z,50.70
2023-01-01T08:59:41.459Z,51.24
2023-01-01T09:02:08.526Z,52.14
2023-01-01T09:04:35.319Z,51.83
2023-01-01T09:07:01.904Z,52.80
2023-01-01T09:09:31.717Z,51.66
2023-01-01T09:12:04.030Z,52.24
2023-01-01T09:14:31.537Z,52.56
2023-01-01T09:16:58.544Z,52.54
2023-01-01T09:19:25.248Z,51.87
2023-01-01T09:21:52.518Z,52.61
2023-01-01T09:24:19.046Z,52.11
2023-01-01T09:26:46.195Z,51.72
2023-01-01T09:29:12.934Z,52.06
2023-01-01T09:31:39.546Z,51.34
2023-01-01T09:34:06.092Z,51.08
2023-01-01T09:36:34.044Z,50.72
2023-01-01T09:39:02.444Z,49.81
2023-01-01T09:42:12.157Z,50.67
2023-01-01T09:44:52.381Z,51.43
2023-01-01T09:47:30.346Z,50.91
2023-01-01T09:50:02.833Z,50.24
2023-01-01T09:52:39.597Z,50.29
2023-01-01T09:55:17.206Z,49.37
2023-01-01T09:57:43.772Z,49.70
2023-01-01T10:00:19.115Z,50.56
2023-01-01T10:03:03.361Z,50.44
2023-01-01T10:05:49.073Z,49.86
2023-01-01T10:08:31.904Z,50.17
2023-01-01T10:11:04.701Z,49.28
2023-01-01T10:13:40.939Z,50.32
2023-01-01T10:16:24.332Z,50.58
2023-01-01T10:18:55.884Z,51.58
2023-01-01T10:21:43.501Z,50.97
2023-01-01T10:24:35.024Z,51.26
2023-01-01T10:27:04.564Z,50.84
2023-01-01T10:29:42.866Z,50.72
2023-01-01T10:32:20.335Z,51.21
2023-01-01T10:34:49.029Z,52.57
2023-01-01T10:37:15.787Z,52.95
2023-01-01T10:39:43.488Z,51.89
2023-01-01T10:42:14.604Z,53.35
2023-01-01T10:44:42.158Z,53.81
2023-01-01T10:47:30.919Z,53.78
2023-01-01T10:50:00.215Z,54.42
2023-01-01T10:52:35.294Z,53.38
2023-01-01T10:55:02.399Z,53.13
2023-01-01T10:57:33.025Z,52.31
2023-01-01T11:00:18.964Z,53.18
2023-01-01T11:02:45.995Z,52.74
2023-01-01T11:05:21.030Z,51.50
2023-01-01T11:07:48.523Z,52.24
2023-01-01T11:10:19.056Z,52.47
2023-01-01T11:13:04.879Z,52.01
2023-01-01T11:15:40.309Z,52.15
2023-01-01T11:18:14.084Z,51.37
2023-01-01T11:20:41.735Z,51.45
2023-01-01T11:23:20.571Z,51.74
2023-01-01T11:26:02.587Z,50.73
2023-01-01T11:28:31.472Z,51.44
2023-01-01T11:31:11.010Z,51.21
2023-01-01T11:33:55.233Z,51.68
2023-01-01T11:36:33.350Z,51.04
2023-01-01T11:39:28.781Z,51.46
2023-01-01T11:41:57.321Z,52.48
2023-01-01T11:44:37.987Z,51.64
2023-01-01T11:47:06.870Z,52.52
2023-01-01T11:49:34.393Z,51.95
2023-01-01T11:52:01.153Z,52.14
2023-01-01T11:54:36.206Z,52.68
2023-01-01T11:57:20.995Z,52.26
2023-01-01T12:00:03.438Z,51.07
2023-01-01T12:02:47.573Z,52.14
2023-01-01T12:05:46.602Z,52.07
2023-01-01T12:08:21.189Z,52.50
2023-01-01T12:11:03.593Z,53.47
2023-01-01T12:13:37.667Z,53.16
2023-01-01T12:16:09.896Z,52.54
2023-01-01T12:18:48.741Z,51.91
2023-01-01T12:21:24.981Z,52.44
2023-01-01T12:23:51.817Z,52.72
2023-01-01T12:26:24.314Z,52.49
2023-01-01T12:29:12.261Z,53.19
2023-01-01T12:32:00.392Z,53.27
2023-01-01T12:34:38.261Z,53.45
2023-01-01T12:37:37.059Z,54.01
2023-01-01T12:40:29.414Z,53.38
2023-01-01T12:43:16.572Z,53.49
2023-01-01T12:45:51.948Z,53.52
2023-01-01T12:48:18.436Z,53.91
2023-01-01T12:50:58.524Z,54.05
2023-01-01T12:53:47.197Z,53.08
2023-01-01T12:56:23.330Z,54.91
2023-01-01T12:59:00.047Z,54.39
2023-01-01T13:01:36.306Z,54.59
2023-01-01T13:04:07.760Z,54.38
2023-01-01T13:06:47.663Z,54.68
2023-01-01T13:09:19.073Z,54.72
2023-01-01T13:11:50.975Z,54.27
2023-01-01T13:14:17.529Z,55.07
2023-01-01T13:16:50.382Z,54.24
2023-01-01T13:19:31.432Z,53.74
2023-01-01T13:21:58.700Z,54.86
2023-01-01T13:24:27.035Z,55.03
2023-01-01T13:26:53.785Z,55.07
2023-01-01T13:29:20.955Z,55.83
2023-01-01T13:31:47.764Z,55.58
2023-01-01T13:34:35.866Z,55.67
2023-01-01T13:37:11.477Z,57.20
2023-01-01T13:39:57.753Z,56.24
2023-01-01T13:42:40.183Z,56.06
2023-01-01T13:46:01.126Z,56.06
2023-01-01T13:48:20.203Z,57.09
2023-01-01T13:51:33.659Z,58.67
2023-01-01T13:54:27.066Z,57.47
2023-01-01T13:57:12.315Z,58.00
2023-01-01T13:59:58.559Z,57.06
2023-01-01T14:02:33.300Z,56.62
2023-01-01T14:05:34.819Z,57.25
2023-01-01T14:08:01.651Z,58.57
2023-01-01T14:10:36.440Z,57.92
2023-01-01T14:13:05.866Z,58.91
2023-01-01T14:15:33.676Z,58.87
2023-01-01T14:18:02.719Z,59.50
2023-01-01T14:20:40.173Z,60.87
2023-01-01T14:23:14.661Z,59.90
2023-01-01T14:25:43.714Z,60.21
2023-01-01T14:28:22.159Z,59.84
2023-01-01T14:30:49.633Z,60.12
2023-01-01T14:33:28.729Z,60.22
2023-01-01T14:35:58.582Z,61.26
2023-01-01T14:38:27.549Z,61.69
2023-01-01T14:41:04.885Z,60.60
2023-01-01T14:43:31.431Z,60.21
2023-01-01T14:45:58.052Z,59.73
2023-01-01T14:48:25.078Z,61.19
2023-01-01T14:50:52.966Z,62.14
2023-01-01T14:53:23.617Z,60.19
2023-01-01T14:55:50.917Z,60.22
2023-01-01T14:58:22.019Z,59.18
2023-01-01T15:00:50.422Z,59.20
2023-01-01T15:03:22.217Z,58.49
2023-01-01T15:06:02.980Z,59.16
2023-01-01T15:08:29.601Z,58.41
2023-01-01T15:10:56.684Z,57.49
2023-01-01T15:13:26.008Z,57.26
2023-01-01T15:15:54.783Z,57.43
2023-01-01T15:18:34.911Z,58.02
2023-01-01T15:21:07.251Z,57.68
2023-01-01T15:23:34.899Z,57.42
2023-01-01T15:26:02.385Z,57.68
2023-01-01T15:28:28.929Z,57.58
2023-01-01T15:30:57.586Z,57.52
2023-01-01T15:33:24.444Z,57.64
2023-01-01T15:35:53.580Z,57.77
2023-01-01T15:38:26.592Z,57.43
2023-01-01T15:40:53.957Z,57.29
2023-01-01T15:43:26.327Z,58.88
2023-01-01T15:45:54.048Z,57.52
2023-01-01T15:48:52.940Z,57.72
2023-01-01T15:51:23.711Z,57.66
2023-01-01T15:54:04.745Z,57.58
2023-01-01T15:56:33.972Z,57.98
2023-01-01T15:59:27.490Z,58.45
2023-01-01T16:02:17.296Z,57.91
2023-01-01T16:04:48.473Z,57.48
2023-01-01T16:07:23.174Z,57.25
2023-01-01T16:09:56.975Z,57.12
2023-01-01T16:12:24.189Z,57.24
2023-01-01T16:14:51.195Z,57.78
2023-01-01T16:17:20.371Z,57.64
2023-01-01T16:19:47.707Z,57.55
2023-01-01T16:22:16.871Z,57.38
2023-01-01T16:24:45.374Z,57.17
2023-01-01T16:27:12.235Z,57.06
2023-01-01T16:29:43.187Z,57.34
2023-01-01T16:32:19.449Z,57.71
2023-01-01T16:34:46.016Z,58.04
2023-01-01T16:37:12.641Z,58.31
2023-01-01T16:39:39.805Z,58.15
2023-01-01T16:42:11.131Z,58.30
2023-01-01T16:44:41.227Z,58.88
2023-01-01T16:47:08.078Z,58.67
2023-01-01T16:49:34.604Z,59.44
2023-01-01T16:52:01.224Z,59.69
2023-01-01T16:54:27.731Z,59.77
2023-01-01T16:56:54.375Z,59.79
2023-01-01T16:59:21.738Z,59.63
2023-01-01T17:01:48.435Z,58.53
2023-01-01T17:04:15.101Z,58.27
2023-01-01T17:06:41.814Z,58.44
2023-01-01T17:09:08.362Z,58.48
2023-01-01T17:11:36.420Z,58.34
2023-01-01T17:14:02.942Z,58.00
2023-01-01T17:16:34.653Z,59.41
2023-01-01T17:19:21.123Z,59.59
2023-01-01T17:21:48.687Z,58.51
2023-01-01T17:24:17.222Z,59.08
2023-01-01T17:26:43.905Z,58.73
2023-01-01T17:29:11.027Z,58.50
2023-01-01T17:31:38.515Z,58.72
2023-01-01T17:34:05.074Z,59.16
2023-01-01T17:36:31.899Z,59.67
2023-01-01T17:38:58.574Z,59.71
2023-01-01T17:41:25.630Z,59.18
2023-01-01T17:43:52.211Z,58.81
2023-01-01T17:46:27.597Z,58.58
2023-01-01T17:48:55.833Z,58.46
2023-01-01T17:51:23.940Z,59.64
2023-01-01T17:53:50.790Z,58.86
2023-01-01T17:56:19.351Z,58.69
2023-01-01T17:58:47.107Z,58.61
2023-01-01T18:01:22.698Z,58.02
2023-01-01T18:03:57.710Z,58.46
2023-01-01T18:06:24.308Z,57.66
2023-01-01T18:08:58.677Z,57.59
2023-01-01T18:11:28.934Z,58.41
2023-01-01T18:13:56.987Z,58.63
2023-01-01T18:16:24.328Z,58.17
2023-01-01T18:18:51.422Z,59.03
2023-01-01T18:21:23.726Z,58.64
2023-01-01T18:23:52.235Z,58.67
2023-01-01T18:26:19.513Z,58.01
2023-01-01T18:29:00.736Z,59.08
2023-01-01T18:31:29.639Z,58.80
2023-01-01T18:33:57.235Z,59.16
2023-01-01T18:36:27.547Z,58.35
2023-01-01T18:39:15.019Z,59.22
2023-01-01T18:42:21.019Z,59.08
2023-01-01T18:44:48.089Z,59.61
2023-01-01T18:47:26.554Z,58.80
2023-01-01T18:50:08.012Z,57.62
2023-01-01T18:52:36.269Z,58.62
2023-01-01T18:55:10.380Z,57.85
2023-01-01T18:57:38.710Z,58.18
2023-01-01T19:00:17.260Z,57.76
2023-01-01T19:02:49.989Z,57.40
2023-01-01T19:05:34.736Z,57.30
2023-01-01T19:08:12.287Z,57.23
2023-01-01T19:10:53.653Z,57.97
2023-01-01T19:13:36.912Z,58.31
2023-01-01T19:16:12.570Z,57.63
2023-01-01T19:18:43.755Z,57.76
2023-01-01T19:21:13.362Z,57.25
2023-01-01T19:23:53.390Z,57.12
2023-01-01T19:26:25.935Z,57.93
2023-01-01T19:28:54.553Z,57.81
2023-01-01T19:31:21.348Z,58.48
2023-01-01T19:33:48.272Z,58.10
2023-01-01T19:36:15.729Z,57.86
2023-01-01T19:38:43.961Z,57.77
2023-01-01T19:41:11.138Z,58.56
2023-01-01T19:43:38.458Z,58.36
2023-01-01T19:46:05.254Z,57.63
2023-01-01T19:48:32.069Z,57.64
2023-01-01T19:50:58.643Z,57.82
2023-01-01T19:53:25.181Z,57.10
2023-01-01T19:55:51.910Z,57.08
2023-01-01T19:58:19.978Z,56.12
2023-01-01T20:00:46.713Z,55.65
2023-01-01T20:06:02.511Z,55.86
2023-01-01T20:08:30.912Z,56.47
2023-01-01T20:10:58.079Z,55.93
2023-01-01T20:13:25.099Z,55.74
2023-01-01T20:15:52.410Z,58.35
2023-01-01T20:18:19.487Z,58.63
2023-01-01T20:21:05.525Z,58.61
2023-01-01T20:23:32.181Z,58.02
2023-01-01T20:25:58.737Z,57.95
2023-01-01T20:28:44.221Z,58.31
2023-01-01T20:31:10.863Z,58.31
2023-01-01T20:33:38.344Z,57.96
2023-01-01T20:36:24.536Z,57.54
2023-01-01T20:38:51.088Z,58.55
2023-01-01T20:41:23.298Z,58.74
2023-01-01T20:43:51.120Z,58.33
2023-01-01T20:46:17.672Z,58.11
2023-01-01T20:48:45.154Z,58.65
2023-01-01T20:51:12.534Z,58.88
2023-01-01T20:53:39.534Z,58.08
2023-01-01T20:56:06.388Z,58.67
2023-01-01T20:58:33.175Z,58.63
2023-01-01T21:01:00.804Z,58.81
2023-01-01T21:03:27.491Z,59.39
2023-01-01T21:05:54.944Z,58.84
2023-01-01T21:08:21.613Z,59.45
2023-01-01T21:10:48.150Z,58.79
2023-01-01T21:13:14.712Z,59.09
2023-01-01T21:15:41.216Z,58.56
2023-01-01T21:18:11.142Z,58.88
2023-01-01T21:20:39.966Z,59.16
2023-01-01T21:23:12.783Z,59.35
2023-01-01T21:25:54.861Z,59.25
2023-01-01T21:28:21.745Z,59.43
2023-01-01T21:30:54.299Z,59.49
2023-01-01T21:33:27.960Z,59.11
2023-01-01T21:35:54.904Z,58.88
2023-01-01T21:38:29.707Z,58.00
2023-01-01T21:41:00.812Z,58.40
2023-01-01T21:43:38.385Z,57.74
2023-01-01T21:46:04.992Z,57.33
2023-01-01T21:48:36.058Z,57.88
2023-01-01T21:51:02.927Z,57.57
2023-01-01T21:53:36.749Z,57.55
2023-01-01T21:56:28.458Z,57.34
2023-01-01T21:59:20.116Z,58.23
2023-01-01T22:01:49.102Z,58.52
2023-01-01T22:04:21.113Z,57.88
2023-01-01T22:07:09.527Z,58.19
2023-01-01T22:09:46.396Z,57.50
2023-01-01T22:12:12.844Z,57.73
2023-01-01T22:14:47.729Z,57.73
2023-01-01T22:17:37.502Z,58.48
2023-01-01T22:20:20.461Z,58.80
2023-01-01T22:22:47.263Z,59.99
2023-01-01T22:25:32.696Z,59.29
2023-01-01T22:28:16.644Z,59.95
2023-01-01T22:30:44.379Z,60.02
2023-01-01T22:33:17.734Z,60.99
2023-01-01T22:35:45.076Z,61.67
2023-01-01T22:38:21.365Z,62.44
2023-01-01T22:40:50.418Z,63.05
2023-01-01T22:43:19.274Z,62.97
2023-01-01T22:45:48.297Z,63.98
2023-01-01T22:48:30.914Z,64.36
2023-01-01T22:51:01.933Z,64.01
2023-01-01T22:53:28.470Z,63.58
2023-01-01T22:55:55.379Z,63.50
2023-01-01T22:58:22.133Z,62.94
2023-01-01T23:00:49.544Z,63.74
2023-01-01T23:03:16.094Z,63.13
2023-01-01T23:05:43.834Z,62.97
2023-01-01T23:08:10.456Z,62.17
2023-01-01T23:10:37.016Z,61.48
2023-01-01T23:13:23.522Z,62.55
2023-01-01T23:16:02.657Z,63.27
2023-01-01T23:18:34.144Z,62.98
2023-01-01T23:21:03.126Z,59.32
2023-01-01T23:23:30.812Z,48.24
2023-01-01T23:25:58.786Z,45.67
2023-01-01T23:28:26.968Z,45.39
2023-01-01T23:30:54.128Z,53.02
2023-01-01T23:33:21.786Z,57.46
2023-01-01T23:35:49.351Z,61.03
2023-01-01T23:38:16.089Z,63.00
2023-01-01T23:40:42.651Z,63.70
2023-01-01T23:43:09.808Z,64.50
2023-01-01T23:45:37.373Z,63.90
2023-01-01T23:48:04.997Z,63.94
2023-01-01T23:50:32.860Z,62.29
2023-01-01T23:53:00.210Z,62.23
2023-01-01T23:55:26.737Z,62.23
2023-01-01T23:57:53.223Z,61.82
